createdAt,value
2018-06-24T00:01:21.597Z,101178.86
2018-06-24T00:03:51.417Z,101176.17
2018-06-24T00:06:21.253Z,101173.75
2018-06-24T00:08:51.097Z,101175.67
2018-06-24T00:11:20.937Z,101166.39
2018-06-24T00:13:50.791Z,101176.59
2018-06-24T00:16:20.551Z,101167.36
2018-06-24T00:18:50.472Z,101165.55
2018-06-24T00:21:20.280Z,101161.27
2018-06-24T00:23:50.231Z,101157.23
2018-06-24T00:26:19.987Z,101162.81
2018-06-24T00:28:49.770Z,101153.56
2018-06-24T00:31:19.584Z,101152.71
2018-06-24T00:33:49.405Z,101154.07
2018-06-24T00:36:19.257Z,101147.48
2018-06-24T00:38:49.348Z,101145.33
2018-06-24T00:41:19.151Z,101126.45
2018-06-24T00:43:48.961Z,101143.95
2018-06-24T00:46:18.764Z,101146.75
2018-06-24T00:48:48.529Z,101139.11
2018-06-24T00:51:18.311Z,101140.87
2018-06-24T00:53:48.182Z,101133.41
2018-06-24T00:56:18.056Z,101140.87
2018-06-24T00:58:47.935Z,101140.95
2018-06-24T01:01:17.772Z,101146.16
2018-06-24T01:03:47.608Z,101136.34
2018-06-24T01:06:18.132Z,101143.50
2018-06-24T01:08:48.033Z,101140.92
2018-06-24T01:11:17.925Z,101138.58
2018-06-24T01:13:47.693Z,101145.30
2018-06-24T01:16:17.578Z,101139.85
2018-06-24T01:18:47.412Z,101137.73
2018-06-24T01:21:17.118Z,101140.33
2018-06-24T01:23:46.912Z,101139.25
2018-06-24T01:26:27.793Z,101138.53
2018-06-24T01:28:57.650Z,101142.11
2018-06-24T01:31:27.378Z,101131.94
2018-06-24T01:33:57.408Z,101130.61
2018-06-24T01:36:27.304Z,101131.45
2018-06-24T01:38:57.002Z,100957.06
2018-06-24T01:41:26.727Z,101132.81
2018-06-24T01:43:56.754Z,101134.20
2018-06-24T01:46:26.564Z,101130.61
2018-06-24T01:48:56.687Z,101131.45
2018-06-24T01:51:27.280Z,101133.27
2018-06-24T01:53:57.352Z,101133.27
2018-06-24T01:56:27.256Z,101129.65
2018-06-24T01:58:58.727Z,101124.39
2018-06-24T02:01:28.850Z,101123.66
2018-06-24T02:03:59.366Z,101127.89
2018-06-24T02:06:29.608Z,101132.98
2018-06-24T02:08:59.436Z,101130.61
2018-06-24T02:11:29.344Z,101122.70
2018-06-24T02:14:00.345Z,101126.68
2018-06-24T02:16:31.268Z,101121.82
2018-06-24T02:19:00.709Z,101127.02
2018-06-24T02:21:30.684Z,101125.86
2018-06-24T02:24:01.112Z,101129.63
2018-06-24T02:26:30.864Z,101126.14
2018-06-24T02:29:01.161Z,101128.91
2018-06-24T02:31:31.210Z,101126.88
2018-06-24T02:34:01.003Z,101121.42
2018-06-24T02:36:31.780Z,101115.69
2018-06-24T02:39:01.595Z,101122.24
2018-06-24T02:41:32.636Z,101117.89
2018-06-24T02:44:02.421Z,101111.70
2018-06-24T02:46:32.298Z,101114.92
2018-06-24T02:49:02.100Z,101117.41
2018-06-24T02:51:31.976Z,101116.93
2018-06-24T02:54:01.976Z,101116.31
2018-06-24T02:56:31.816Z,101120.05
2018-06-24T02:59:01.609Z,101121.25
2018-06-24T03:01:31.492Z,101123.03
2018-06-24T03:04:01.308Z,101119.47
2018-06-24T03:06:31.201Z,101124.39
2018-06-24T03:09:01.045Z,101118.99
2018-06-24T03:11:30.811Z,101120.41
2018-06-24T03:14:00.570Z,101117.64
2018-06-24T03:16:30.860Z,101110.56
2018-06-24T03:19:00.780Z,101105.31
2018-06-24T03:21:30.979Z,101103.98
2018-06-24T03:24:01.056Z,101102.23
2018-06-24T03:26:30.859Z,101100.53
2018-06-24T03:29:00.649Z,101102.77
2018-06-24T03:31:30.513Z,101102.57
2018-06-24T03:34:00.315Z,101100.79
2018-06-24T03:36:30.109Z,101097.28
2018-06-24T03:38:59.873Z,101099.16
2018-06-24T03:41:29.671Z,101092.30
2018-06-24T03:43:59.422Z,101091.24
2018-06-24T03:46:29.477Z,101098.77
2018-06-24T03:48:59.205Z,101096.23
2018-06-24T03:51:29.078Z,101100.48
2018-06-24T03:53:58.868Z,101097.89
2018-06-24T03:56:29.171Z,101103.14
2018-06-24T03:58:59.354Z,101101.48
2018-06-24T04:01:29.795Z,101104.05
2018-06-24T04:04:00.246Z,101099.80
2018-06-24T04:06:30.354Z,101104.59
2018-06-24T04:09:00.259Z,101103.75
2018-06-24T04:11:30.091Z,101103.75
2018-06-24T04:13:59.840Z,101101.94
2018-06-24T04:16:29.791Z,101098.04
2018-06-24T04:18:59.713Z,101102.42
2018-06-24T04:21:29.701Z,101099.13
2018-06-24T04:23:59.562Z,101095.17
2018-06-24T04:26:29.934Z,101094.69
2018-06-24T04:28:59.742Z,101088.70
2018-06-24T04:31:29.622Z,101087.64
2018-06-24T04:33:59.403Z,101081.86
2018-06-24T04:36:29.145Z,101088.33
2018-06-24T04:38:58.995Z,101090.47
2018-06-24T04:41:28.795Z,101077.33
2018-06-24T04:43:58.659Z,101090.45
2018-06-24T04:46:28.615Z,101093.28
2018-06-24T04:48:58.553Z,101098.56
2018-06-24T04:51:28.410Z,101100.02
2018-06-24T04:53:58.729Z,101100.48
2018-06-24T04:56:29.572Z,101087.34
2018-06-24T04:58:59.325Z,101106.54
2018-06-24T05:01:29.075Z,101107.52
2018-06-24T05:03:59.047Z,101100.45
2018-06-24T05:06:28.943Z,101096.23
2018-06-24T05:08:58.735Z,101097.66
2018-06-24T05:11:28.637Z,101104.79
2018-06-24T05:13:58.375Z,101092.81
2018-06-24T05:16:28.150Z,101096.00
2018-06-24T05:18:59.426Z,101091.05
2018-06-24T05:21:29.170Z,101095.67
2018-06-24T05:23:59.150Z,101083.94
2018-06-24T05:26:28.945Z,101088.02
2018-06-24T05:28:58.807Z,101091.63
2018-06-24T05:31:28.547Z,101091.67
2018-06-24T05:33:58.366Z,101088.20
2018-06-24T05:36:28.155Z,101089.42
2018-06-24T05:38:58.011Z,101090.27
2018-06-24T05:41:27.909Z,101093.21
2018-06-24T05:43:57.894Z,101099.14
2018-06-24T05:46:27.748Z,101101.30
2018-06-24T05:48:57.730Z,101102.00
2018-06-24T05:51:27.585Z,101097.17
2018-06-24T05:53:57.430Z,101102.11
2018-06-24T05:56:27.237Z,101108.90
2018-06-24T05:58:57.298Z,101106.97
2018-06-24T06:01:27.111Z,101109.99
2018-06-24T06:03:57.140Z,101106.86
2018-06-24T06:06:27.008Z,101110.23
2018-06-24T06:08:56.816Z,101110.90
2018-06-24T06:11:26.618Z,101116.95
2018-06-24T06:13:56.470Z,101122.41
2018-06-24T06:16:26.243Z,101119.45
2018-06-24T06:18:56.165Z,101120.04
2018-06-24T06:21:26.263Z,101123.16
2018-06-24T06:23:56.089Z,101121.22
2018-06-24T06:26:25.918Z,101119.36
2018-06-24T06:28:55.894Z,101119.20
2018-06-24T06:31:25.610Z,101119.31
2018-06-24T06:33:55.930Z,101117.92
2018-06-24T06:36:26.768Z,101128.37
2018-06-24T06:38:56.628Z,101125.92
2018-06-24T06:41:26.417Z,101122.98
2018-06-24T06:43:56.442Z,101126.34
2018-06-24T06:46:26.250Z,101125.57
2018-06-24T06:48:56.101Z,101131.80
2018-06-24T06:51:26.004Z,101127.54
2018-06-24T06:53:55.821Z,101127.73
2018-06-24T06:56:25.703Z,101129.47
2018-06-24T06:58:55.599Z,101131.44
2018-06-24T07:01:25.325Z,101126.59
2018-06-24T07:03:55.163Z,101123.97
2018-06-24T07:06:25.096Z,101123.61
2018-06-24T07:08:55.066Z,101118.58
2018-06-24T07:11:25.046Z,101125.55
2018-06-24T07:13:54.874Z,101124.01
2018-06-24T07:16:24.750Z,101125.66
2018-06-24T07:18:54.650Z,101124.48
2018-06-24T07:21:25.402Z,101132.37
2018-06-24T07:23:55.189Z,101136.47
2018-06-24T07:26:25.232Z,101141.77
2018-06-24T07:28:55.034Z,101141.35
2018-06-24T07:31:25.026Z,101144.89
2018-06-24T07:33:56.046Z,101136.30
2018-06-24T07:36:26.987Z,101128.31
2018-06-24T07:38:56.988Z,101124.77
2018-06-24T07:41:27.234Z,101134.12
2018-06-24T07:43:57.431Z,101122.44
2018-06-24T07:46:27.625Z,101126.06
2018-06-24T07:48:57.589Z,101122.16
2018-06-24T07:51:29.188Z,101121.41
2018-06-24T07:53:59.087Z,101130.31
2018-06-24T07:56:29.017Z,101123.52
2018-06-24T07:58:58.825Z,101127.22
2018-06-24T08:01:28.833Z,101128.23
2018-06-24T08:03:58.669Z,101121.08
2018-06-24T08:06:28.541Z,101130.06
2018-06-24T08:08:58.433Z,101129.82
2018-06-24T08:11:28.366Z,101124.95
2018-06-24T08:13:58.074Z,101134.96
2018-06-24T08:16:29.955Z,101137.70
2018-06-24T08:19:00.687Z,101144.89
2018-06-24T08:21:30.515Z,101149.34
2018-06-24T08:24:00.488Z,101146.92
2018-06-24T08:26:30.488Z,101142.22
2018-06-24T08:29:00.337Z,101142.13
2018-06-24T08:31:34.509Z,101132.60
2018-06-24T08:34:05.112Z,101135.23
2018-06-24T08:36:35.033Z,101138.81
2018-06-24T08:39:06.707Z,101136.09
2018-06-24T08:41:36.615Z,101135.96
2018-06-24T08:44:07.009Z,101128.95
2018-06-24T08:46:37.576Z,101138.86
2018-06-24T08:49:08.203Z,101132.80
2018-06-24T08:51:41.758Z,101132.10
2018-06-24T08:54:11.745Z,101136.03
2018-06-24T08:56:41.538Z,101148.84
2018-06-24T08:59:11.417Z,101147.93
2018-06-24T09:01:41.277Z,101155.52
2018-06-24T09:04:11.607Z,101150.28
2018-06-24T09:06:41.490Z,101155.85
2018-06-24T09:09:11.929Z,101158.05
2018-06-24T09:11:41.817Z,101159.26
2018-06-24T09:14:11.661Z,101160.99
2018-06-24T09:16:41.505Z,101156.22
2018-06-24T09:19:11.457Z,101160.70
2018-06-24T09:21:40.978Z,101164.70
2018-06-24T09:24:10.745Z,101150.78
2018-06-24T09:26:40.605Z,101157.84
2018-06-24T09:29:10.414Z,101157.59
2018-06-24T09:31:40.217Z,101161.93
2018-06-24T09:34:10.632Z,101165.27
2018-06-24T09:36:40.464Z,101169.97
2018-06-24T09:39:12.344Z,101165.97
2018-06-24T09:41:42.213Z,101162.37
2018-06-24T09:44:12.502Z,101164.01
2018-06-24T09:46:42.508Z,101165.75
2018-06-24T09:49:12.981Z,101164.62
2018-06-24T09:51:43.127Z,101158.33
2018-06-24T09:54:13.009Z,101157.70
2018-06-24T09:56:43.661Z,101165.63
2018-06-24T09:59:13.454Z,101159.20
2018-06-24T10:01:43.301Z,101155.70
2018-06-24T10:04:13.197Z,101172.55
2018-06-24T10:06:44.019Z,101173.03
2018-06-24T10:09:14.089Z,101169.20
2018-06-24T10:11:43.873Z,101169.05
2018-06-24T10:14:13.358Z,101179.11
2018-06-24T10:16:42.783Z,101172.37
2018-06-24T10:19:12.694Z,101173.59
2018-06-24T10:21:42.647Z,101176.27
2018-06-24T10:24:12.378Z,101172.84
2018-06-24T10:26:42.198Z,101180.06
2018-06-24T10:29:11.980Z,101180.23
2018-06-24T10:31:41.797Z,101171.72
2018-06-24T10:34:11.626Z,101172.61
2018-06-24T10:36:41.735Z,101174.36
2018-06-24T10:39:13.985Z,101170.03
2018-06-24T10:41:44.997Z,101176.23
2018-06-24T10:44:16.459Z,101170.36
2018-06-24T10:46:46.610Z,101173.72
2018-06-24T10:49:16.917Z,101167.42
2018-06-24T10:51:49.427Z,101165.56
2018-06-24T10:54:19.338Z,101179.37
2018-06-24T10:56:49.701Z,101183.52
2018-06-24T10:59:21.729Z,101176.03
2018-06-24T11:01:51.662Z,101175.59
2018-06-24T11:04:23.480Z,101170.77
2018-06-24T11:06:55.088Z,101164.58
2018-06-24T11:09:26.220Z,101173.41
2018-06-24T11:12:08.517Z,101168.86
2018-06-24T11:14:40.300Z,101173.27
2018-06-24T11:17:13.672Z,101176.64
2018-06-24T11:19:45.727Z,101174.08
2018-06-24T11:22:16.630Z,101171.02
2018-06-24T11:24:47.121Z,101166.63
2018-06-24T11:27:20.281Z,101166.98
2018-06-24T11:29:52.330Z,101165.73
2018-06-24T11:32:23.324Z,101159.56
2018-06-24T11:34:55.048Z,101172.50
2018-06-24T11:37:48.173Z,101166.66
2018-06-24T11:40:19.431Z,101169.37
2018-06-24T11:42:49.808Z,101165.63
2018-06-24T11:45:20.868Z,101172.82
2018-06-24T11:47:51.771Z,101170.66
2018-06-24T11:50:22.067Z,101170.00
2018-06-24T11:52:52.706Z,101172.48
2018-06-24T11:58:35.822Z,101172.43
2018-06-24T12:01:06.579Z,101166.16
2018-06-24T12:03:39.072Z,101168.66
2018-06-24T12:06:13.951Z,101168.16
2018-06-24T12:08:47.592Z,101164.98
2018-06-24T12:11:18.727Z,101166.58
2018-06-24T12:13:50.463Z,101171.00
2018-06-24T12:16:20.754Z,101170.70
2018-06-24T12:18:51.490Z,101161.77
2018-06-24T12:21:22.506Z,101153.20
2018-06-24T12:23:54.142Z,101154.19
2018-06-24T12:26:28.072Z,101158.84
2018-06-24T12:29:01.454Z,101147.61
2018-06-24T12:31:37.780Z,101143.14
2018-06-24T12:34:09.959Z,101136.90
2018-06-24T12:36:43.576Z,101142.66
2018-06-24T12:39:17.721Z,101143.62
2018-06-24T12:41:48.198Z,101130.19
2018-06-24T12:44:31.746Z,101128.58
2018-06-24T12:47:02.380Z,101128.72
2018-06-24T12:49:32.971Z,101132.28
2018-06-24T12:52:05.160Z,101124.72
2018-06-24T12:54:37.636Z,101130.94
2018-06-24T12:57:09.853Z,101129.14
2018-06-24T12:59:41.031Z,101132.42
2018-06-24T13:02:10.887Z,101135.50
2018-06-24T13:04:44.951Z,101134.02
2018-06-24T13:07:17.141Z,101134.08
2018-06-24T13:09:48.011Z,101136.39
2018-06-24T13:12:21.178Z,101130.56
2018-06-24T13:17:45.079Z,101127.95
2018-06-24T13:20:15.811Z,101123.12
2018-06-24T13:22:47.260Z,101119.77
2018-06-24T13:25:18.975Z,101124.06
2018-06-24T13:27:49.266Z,101131.81
2018-06-24T13:30:22.123Z,101122.39
2018-06-24T13:32:54.033Z,101122.75
2018-06-24T13:35:24.430Z,101124.23
2018-06-24T13:37:55.314Z,101114.94
2018-06-24T13:40:25.668Z,101116.67
2018-06-24T13:43:09.641Z,101113.59
2018-06-24T13:45:53.352Z,101111.66
2018-06-24T13:48:42.504Z,101112.38
2018-06-24T13:51:32.557Z,101122.10
2018-06-24T13:54:20.458Z,101131.10
2018-06-24T14:00:16.275Z,101132.91
2018-06-24T14:02:48.120Z,101129.13
2018-06-24T14:05:20.774Z,101130.31
2018-06-24T14:08:09.146Z,101130.75
2018-06-24T14:10:39.448Z,101141.59
2018-06-24T14:13:11.390Z,101128.27
2018-06-24T14:15:41.804Z,101136.22
2018-06-24T14:18:19.771Z,101130.88
2018-06-24T14:20:50.689Z,101132.52
2018-06-24T14:23:21.935Z,101135.70
2018-06-24T14:25:53.779Z,101133.50
2018-06-24T14:28:25.571Z,101140.29
2018-06-24T14:30:56.654Z,101137.59
2018-06-24T14:33:26.886Z,101133.94
2018-06-24T14:36:07.702Z,101145.05
2018-06-24T14:38:48.546Z,101140.29
2018-06-24T14:41:21.006Z,101142.96
2018-06-24T14:43:53.372Z,101143.45
2018-06-24T14:46:26.831Z,101143.27
2018-06-24T14:48:57.774Z,101132.84
2018-06-24T14:51:29.497Z,101135.92
2018-06-24T14:54:00.939Z,101138.98
2018-06-24T14:56:32.062Z,101142.20
2018-06-24T14:59:05.855Z,101141.55
2018-06-24T15:01:41.595Z,101135.75
2018-06-24T15:04:12.628Z,101133.69
2018-06-24T15:06:43.519Z,101137.38
2018-06-24T15:09:13.908Z,101131.59
2018-06-24T15:11:44.142Z,101138.96
2018-06-24T15:14:14.188Z,101134.41
2018-06-24T15:16:44.150Z,101133.62
2018-06-24T15:19:14.757Z,101129.83
2018-06-24T15:21:48.985Z,101121.16
2018-06-24T15:24:22.019Z,101120.67
2018-06-24T15:26:52.172Z,101115.19
2018-06-24T15:29:24.434Z,101113.23
2018-06-24T15:31:55.801Z,101113.19
2018-06-24T15:34:28.345Z,101067.05
2018-06-24T15:36:59.272Z,101110.50
2018-06-24T15:39:29.506Z,101107.48
2018-06-24T15:41:59.479Z,101106.27
2018-06-24T15:44:29.698Z,101106.34
2018-06-24T15:46:59.781Z,101099.20
2018-06-24T15:49:32.449Z,101099.93
2018-06-24T15:55:00.680Z,101109.38
2018-06-24T15:57:55.281Z,101117.45
2018-06-24T16:00:31.359Z,101117.09
2018-06-24T16:03:05.978Z,101117.75
2018-06-24T16:05:37.201Z,101121.72
2018-06-24T16:08:13.746Z,101119.05
2018-06-24T16:10:54.605Z,101121.76
2018-06-24T16:13:30.364Z,101119.02
2018-06-24T16:16:07.289Z,101115.45
2018-06-24T16:18:38.555Z,101029.22
2018-06-24T16:21:24.708Z,101119.50
2018-06-24T16:24:06.062Z,101123.06
2018-06-24T16:26:35.620Z,101116.89
2018-06-24T16:29:07.026Z,101119.66
2018-06-24T16:31:38.581Z,101116.33
2018-06-24T16:34:09.309Z,101112.78
2018-06-24T16:36:40.233Z,101113.70
2018-06-24T16:39:13.349Z,101109.86
2018-06-24T16:41:44.459Z,101112.67
2018-06-24T16:44:14.921Z,101108.27
2018-06-24T16:46:45.720Z,101108.97
2018-06-24T16:49:15.735Z,101105.75
2018-06-24T16:51:46.219Z,101097.05
2018-06-24T16:54:18.066Z,101099.11
2018-06-24T16:56:48.795Z,101099.58
2018-06-24T16:59:20.736Z,101108.41
2018-06-24T17:01:50.830Z,101111.45
2018-06-24T17:04:21.366Z,101110.39
2018-06-24T17:06:51.302Z,101097.56
2018-06-24T17:09:24.545Z,101098.56
2018-06-24T17:11:54.505Z,101099.95
2018-06-24T17:14:24.942Z,101094.97
2018-06-24T17:16:55.081Z,101096.55
2018-06-24T17:19:25.159Z,101090.87
2018-06-24T17:21:55.049Z,101095.43
2018-06-24T17:24:25.125Z,101096.41
2018-06-24T17:26:55.349Z,101088.85
2018-06-24T17:29:24.988Z,101090.55
2018-06-24T17:31:55.074Z,101086.83
2018-06-24T17:34:25.159Z,101087.70
2018-06-24T17:36:55.533Z,101077.11
2018-06-24T17:39:30.261Z,101081.35
2018-06-24T17:42:01.702Z,101074.58
2018-06-24T17:44:32.133Z,101083.28
2018-06-24T17:47:04.246Z,101083.78
2018-06-24T17:49:35.261Z,101077.16
2018-06-24T17:52:05.585Z,101083.64
2018-06-24T17:54:35.655Z,101087.14
2018-06-24T17:57:05.779Z,101079.59
2018-06-24T17:59:35.482Z,101080.24
2018-06-24T18:02:06.598Z,101079.09
2018-06-24T18:04:37.686Z,101086.50
2018-06-24T18:07:07.658Z,101083.95
2018-06-24T18:09:38.873Z,101086.10
2018-06-24T18:12:09.061Z,101084.35
2018-06-24T18:14:39.217Z,101085.48
2018-06-24T18:17:10.163Z,101089.03
2018-06-24T18:19:41.997Z,101087.80
2018-06-24T18:22:12.944Z,101090.13
2018-06-24T18:24:44.541Z,101096.31
2018-06-24T18:27:14.630Z,101096.45
2018-06-24T18:29:44.549Z,101094.91
2018-06-24T18:32:15.065Z,101096.95
2018-06-24T18:34:44.902Z,101091.91
2018-06-24T18:37:15.520Z,101087.91
2018-06-24T18:39:46.282Z,101092.67
2018-06-24T18:42:16.305Z,101098.45
2018-06-24T18:44:47.096Z,101103.37
2018-06-24T18:47:17.234Z,101092.98
2018-06-24T18:49:47.250Z,101093.44
2018-06-24T18:52:18.010Z,101099.23
2018-06-24T18:54:48.480Z,101096.41
2018-06-24T18:57:19.118Z,101097.09
2018-06-24T18:59:49.767Z,101094.89
2018-06-24T19:02:20.349Z,101098.02
2018-06-24T19:04:51.686Z,101094.02
2018-06-24T19:07:22.053Z,101097.14
2018-06-24T19:09:52.820Z,101102.61
2018-06-24T19:12:23.287Z,101111.51
2018-06-24T19:14:54.414Z,101115.97
2018-06-24T19:17:24.821Z,101121.64
2018-06-24T19:19:55.692Z,101120.92
2018-06-24T19:22:26.670Z,101128.90
2018-06-24T19:24:56.911Z,101124.56
2018-06-24T19:27:27.900Z,101127.58
2018-06-24T19:29:58.437Z,101131.22
2018-06-24T19:32:28.994Z,101133.53
2018-06-24T19:34:59.468Z,101136.05
2018-06-24T19:37:30.070Z,101139.30
2018-06-24T19:40:00.582Z,101142.84
2018-06-24T19:42:31.074Z,101141.75
2018-06-24T19:45:01.447Z,101143.96
2018-06-24T19:47:32.083Z,101149.31
2018-06-24T19:50:03.085Z,101150.33
2018-06-24T19:52:33.300Z,101150.72
2018-06-24T19:55:04.651Z,101152.15
2018-06-24T19:57:35.113Z,101153.27
2018-06-24T20:00:06.906Z,101150.68
2018-06-24T20:02:38.668Z,101146.83
2018-06-24T20:05:08.973Z,101146.44
2018-06-24T20:07:41.307Z,101148.19
2018-06-24T20:10:11.255Z,101145.49
2018-06-24T20:12:41.182Z,101142.37
2018-06-24T20:15:11.591Z,101149.88
2018-06-24T20:17:41.544Z,101150.33
2018-06-24T20:20:12.393Z,101154.32
2018-06-24T20:22:43.395Z,101141.98
2018-06-24T20:25:13.395Z,101148.89
2018-06-24T20:27:43.570Z,101149.80
2018-06-24T20:30:13.401Z,101152.05
2018-06-24T20:32:43.768Z,101155.52
2018-06-24T20:35:13.576Z,101152.44
2018-06-24T20:37:43.727Z,101158.63
2018-06-24T20:40:13.621Z,101161.26
2018-06-24T20:42:43.388Z,101156.33
2018-06-24T20:45:13.247Z,101158.56
2018-06-24T20:47:43.046Z,101163.40
2018-06-24T20:50:12.933Z,101162.28
2018-06-24T20:52:42.790Z,101158.67
2018-06-24T20:55:12.681Z,101162.00
2018-06-24T20:57:42.583Z,101159.86
2018-06-24T21:00:12.843Z,101165.12
2018-06-24T21:02:42.783Z,101164.66
2018-06-24T21:05:12.627Z,101169.04
2018-06-24T21:07:42.603Z,101169.04
2018-06-24T21:10:12.487Z,101170.30
2018-06-24T21:12:42.340Z,101168.55
2018-06-24T21:15:12.160Z,101170.20
2018-06-24T21:17:42.016Z,101164.98
2018-06-24T21:20:11.978Z,101164.62
2018-06-24T21:22:41.740Z,101164.66
2018-06-24T21:25:11.728Z,101159.23
2018-06-24T21:27:41.506Z,101161.97
2018-06-24T21:30:11.538Z,101169.25
2018-06-24T21:32:41.398Z,101166.66
2018-06-24T21:35:11.168Z,101168.06
2018-06-24T21:37:41.011Z,101171.08
2018-06-24T21:40:10.977Z,101169.75
2018-06-24T21:42:40.452Z,101172.05
2018-06-24T21:45:10.405Z,101167.46
2018-06-24T21:47:40.268Z,101168.30
2018-06-24T21:50:10.147Z,101171.70
2018-06-24T21:52:40.034Z,101168.37
2018-06-24T21:55:10.495Z,101166.65
2018-06-24T21:57:40.350Z,101166.97
2018-06-24T22:00:11.316Z,101166.87
2018-06-24T22:02:41.361Z,101163.18
2018-06-24T22:05:11.263Z,101172.50
2018-06-24T22:07:41.130Z,101167.98
2018-06-24T22:10:11.047Z,101165.45
2018-06-24T22:12:40.829Z,101162.02
2018-06-24T22:15:12.490Z,101157.70
2018-06-24T22:17:44.069Z,101163.34
2018-06-24T22:20:14.305Z,101164.09
2018-06-24T22:22:45.477Z,101158.97
2018-06-24T22:25:15.460Z,101159.03
2018-06-24T22:27:45.844Z,101155.46
2018-06-24T22:30:17.792Z,101156.30
2018-06-24T22:32:47.766Z,101159.00
2018-06-24T22:35:18.342Z,101165.97
2018-06-24T22:37:48.219Z,101163.70
2018-06-24T22:40:18.048Z,101170.09
2018-06-24T22:42:47.944Z,101167.46
2018-06-24T22:45:17.841Z,101167.11
2018-06-24T22:47:48.023Z,101172.81
2018-06-24T22:50:18.825Z,101165.03
2018-06-24T22:52:48.767Z,101173.98
2018-06-24T22:55:18.594Z,101170.42
2018-06-24T22:57:51.757Z,101169.09
2018-06-24T23:00:21.745Z,101174.80
2018-06-24T23:02:53.190Z,101169.48
2018-06-24T23:05:24.758Z,101173.02
2018-06-24T23:07:56.267Z,101171.72
2018-06-24T23:10:27.954Z,101169.52
2018-06-24T23:12:59.309Z,101173.05
2018-06-24T23:15:29.323Z,101167.76
2018-06-24T23:17:59.257Z,101163.31
2018-06-24T23:20:31.222Z,101159.78
2018-06-24T23:23:03.106Z,101158.13
2018-06-24T23:25:35.418Z,101151.56
2018-06-24T23:28:05.935Z,101153.35
2018-06-24T23:30:36.244Z,101159.52
2018-06-24T23:33:07.532Z,101158.19
2018-06-24T23:35:38.110Z,101157.77
2018-06-24T23:38:08.093Z,101157.31
2018-06-24T23:40:40.626Z,101157.80
2018-06-24T23:43:13.061Z,101159.52
2018-06-24T23:45:42.995Z,101171.49
2018-06-24T23:48:13.967Z,101166.63
2018-06-24T23:50:43.489Z,101161.76
2018-06-24T23:53:13.407Z,101156.41
2018-06-24T23:55:43.329Z,101156.59
2018-06-24T23:58:13.154Z,101161.50
